createdAt,value
2022-08-17T00:45:04.534Z,16.15
2022-08-17T01:45:04.188Z,16.15
2022-08-17T02:05:04.431Z,16.15
2022-08-17T02:25:04.422Z,16.15
2022-08-17T02:45:04.386Z,16.15
2022-08-17T03:05:04.351Z,16.15
2022-08-17T03:25:04.335Z,16.15
2022-08-17T03:45:04.295Z,16.16
2022-08-17T04:25:04.249Z,16.16
2022-08-17T04:45:04.225Z,16.16
2022-08-17T05:25:04.167Z,16.16
2022-08-17T06:05:04.097Z,16.16
2022-08-17T06:25:04.077Z,16.16
2022-08-17T07:05:03.998Z,16.16
2022-08-17T07:45:03.913Z,16.17
2022-08-17T08:25:03.867Z,16.16
2022-08-17T08:45:04.890Z,16.16
2022-08-17T09:05:14.154Z,16.16
2022-08-17T09:25:03.757Z,16.15
2022-08-17T10:05:03.692Z,16.15
2022-08-17T10:25:20.990Z,16.14
2022-08-17T11:25:03.554Z,16.14
2022-08-17T12:05:03.481Z,16.14
2022-08-17T13:25:03.347Z,16.13
2022-08-17T13:45:22.470Z,16.12
2022-08-17T15:05:03.210Z,16.11
2022-08-17T15:25:03.178Z,16.11
2022-08-17T15:45:02.876Z,16.11
2022-08-17T16:05:02.906Z,16.11
2022-08-17T16:25:03.069Z,16.11
2022-08-17T16:45:03.036Z,16.11
2022-08-17T17:05:03.058Z,16.11
2022-08-17T17:25:02.965Z,16.11
2022-08-17T18:05:02.903Z,16.1
2022-08-17T18:25:02.942Z,16.11
2022-08-17T18:45:02.903Z,16.11
2022-08-17T19:05:02.813Z,16.1
2022-08-17T19:25:03.808Z,16.1
2022-08-17T19:45:02.740Z,16.1
2022-08-17T20:05:02.712Z,16.11
2022-08-17T20:25:02.709Z,16.11
2022-08-17T20:45:02.695Z,16.11
2022-08-17T21:05:03.838Z,16.11
2022-08-17T21:25:02.573Z,16.11
2022-08-17T21:45:02.540Z,16.11
2022-08-17T22:05:02.557Z,16.11
2022-08-17T22:25:02.515Z,16.11
2022-08-17T22:45:02.486Z,16.11
2022-08-17T23:05:02.445Z,16.12
2022-08-17T23:25:02.425Z,16.11
2022-08-17T23:45:02.389Z,16.12
